Time;durP1;ratioP1;P1;durP2;ratioP2;P2;SDS_P1;SDS_P2;PMS_P1;PMS_P2;Temp;Humidity;BMP_temperature;BMP_pressure;BME280_temperature;BME280_humidity;BME280_pressure;Samples;Min_cycle;Max_cycle;Signal;HPM_P1;HPM_P2
2021/10/21 00:02:14;;;;;;;5.07;2.55;;;;;;;14.99;80.23;98868.50;4972387;28;20494;-82
2021/10/21 00:04:40;;;;;;;5.72;3.20;;;;;;;14.97;81.31;98856.69;4973621;28;20089;-81
2021/10/21 00:07:05;;;;;;;15.75;3.70;;;;;;;14.85;82.06;98861.16;4971021;28;20065;-81
2021/10/21 00:09:31;;;;;;;8.15;3.40;;;;;;;14.71;84.24;98839.75;4985494;28;20046;-77
2021/10/21 00:11:56;;;;;;;9.30;3.25;;;;;;;14.67;84.79;98838.63;4973335;28;20030;-79
2021/10/21 00:14:22;;;;;;;7.45;3.53;;;;;;;14.57;84.98;98832.16;4975589;28;20112;-79
2021/10/21 00:16:49;;;;;;;10.00;3.20;;;;;;;14.61;84.87;98832.50;4988756;28;20129;-79
2021/10/21 00:19:15;;;;;;;7.85;2.95;;;;;;;14.49;86.58;98829.09;4975528;28;20709;-79
2021/10/21 00:21:40;;;;;;;5.63;2.85;;;;;;;14.44;86.24;98829.78;4975769;28;20526;-80
2021/10/21 00:24:06;;;;;;;8.15;3.30;;;;;;;14.38;87.21;98865.38;4971724;28;20046;-78
2021/10/21 00:26:31;;;;;;;9.40;3.30;;;;;;;14.29;88.42;98850.31;4976567;28;20394;-80
2021/10/21 00:28:57;;;;;;;9.40;3.55;;;;;;;14.27;89.17;98860.16;4993153;28;20053;-80
2021/10/21 00:31:22;;;;;;;6.13;3.22;;;;;;;14.25;89.49;98839.53;4973457;28;20402;-81
2021/10/21 00:33:48;;;;;;;10.55;3.80;;;;;;;14.23;89.97;98806.91;4988462;28;20041;-79
2021/10/21 00:36:14;;;;;;;8.88;3.38;;;;;;;14.21;90.35;98781.06;4973873;28;20546;-80
2021/10/21 00:38:39;;;;;;;9.73;3.35;;;;;;;14.19;90.09;98757.06;4988590;28;20410;-80
2021/10/21 00:41:05;;;;;;;12.18;3.40;;;;;;;14.09;90.69;98782.88;4971436;28;20066;-81
2021/10/21 00:43:38;;;;;;;7.45;2.90;;;;;;;14.15;91.32;98785.38;4988517;28;20045;-80
2021/10/21 00:46:09;;;;;;;5.78;3.00;;;;;;;14.09;91.19;98783.69;4978785;28;20165;-79
2021/10/21 00:48:35;;;;;;;7.72;2.95;;;;;;;14.01;91.87;98786.63;4971709;28;20068;-81
2021/10/21 00:51:07;;;;;;;9.48;2.85;;;;;;;14.08;91.93;98779.50;4975834;28;20141;-79
2021/10/21 00:53:34;;;;;;;6.65;3.03;;;;;;;13.96;92.06;98771.69;4975872;28;20042;-78
2021/10/21 00:56:02;;;;;;;6.25;2.40;;;;;;;13.92;92.02;98757.53;4990004;28;20506;-80
2021/10/21 00:58:28;;;;;;;5.88;2.50;;;;;;;13.97;90.77;98756.84;4987956;28;20474;-78
2021/10/21 01:00:54;;;;;;;5.50;2.00;;;;;;;13.99;90.03;98753.00;4971247;28;20101;-77
2021/10/21 01:03:20;;;;;;;6.07;1.90;;;;;;;13.93;88.67;98747.91;4987563;28;20399;-79
2021/10/21 01:05:47;;;;;;;4.47;2.50;;;;;;;14.01;88.62;98743.16;4988269;28;20398;-79
2021/10/21 01:08:13;;;;;;;3.30;1.48;;;;;;;14.01;86.66;98740.53;4969165;28;20499;-77
2021/10/21 01:10:39;;;;;;;7.20;1.83;;;;;;;13.86;86.03;98744.59;4974439;28;20041;-77
2021/10/21 01:13:05;;;;;;;6.72;2.55;;;;;;;13.87;84.28;98739.19;4972168;28;20034;-77
2021/10/21 01:15:31;;;;;;;4.35;1.35;;;;;;;13.78;84.14;98727.50;4968632;28;20030;-77
2021/10/21 01:17:56;;;;;;;2.67;1.42;;;;;;;13.62;81.78;98715.97;4973946;28;20026;-78
2021/10/21 01:20:23;;;;;;;3.13;1.13;;;;;;;13.59;79.12;98738.03;4976313;28;20387;-76
2021/10/21 01:22:48;;;;;;;2.55;0.88;;;;;;;13.56;76.34;98738.50;4989878;28;20505;-77
2021/10/21 01:25:15;;;;;;;5.07;1.15;;;;;;;13.51;74.58;98719.38;4990965;28;20022;-81
2021/10/21 01:27:43;;;;;;;4.25;0.80;;;;;;;13.41;76.48;98732.91;5008161;28;20030;-76
2021/10/21 01:30:17;;;;;;;2.33;1.00;;;;;;;13.37;74.21;98729.19;4973909;28;20034;-76
2021/10/21 01:32:42;;;;;;;6.00;1.58;;;;;;;13.36;73.11;98733.59;4988979;28;20030;-78
2021/10/21 01:35:08;;;;;;;5.68;0.98;;;;;;;13.32;73.98;98705.66;4991242;28;20031;-76
2021/10/21 01:37:34;;;;;;;5.57;1.13;;;;;;;13.31;73.16;98719.66;4992200;28;20037;-76
2021/10/21 01:39:59;;;;;;;4.93;0.70;;;;;;;13.35;71.42;98708.56;4991991;28;20030;-76
2021/10/21 01:42:25;;;;;;;3.22;0.60;;;;;;;13.35;72.89;98726.00;4973673;28;20038;-76
2021/10/21 01:44:51;;;;;;;4.50;0.90;;;;;;;13.12;75.55;98737.91;4974047;28;20496;-79
2021/10/21 01:47:16;;;;;;;5.28;0.80;;;;;;;12.92;80.97;98746.03;4992099;28;20497;-79
2021/10/21 01:49:42;;;;;;;5.80;1.10;;;;;;;12.65;83.76;98733.34;4974129;28;20034;-80
2021/10/21 01:52:07;;;;;;;4.35;0.90;;;;;;;12.52;84.69;98727.53;4975943;28;20022;-78
2021/10/21 01:54:33;;;;;;;10.18;1.35;;;;;;;12.49;85.67;98722.75;5011388;28;20033;-78
2021/10/21 01:56:58;;;;;;;2.80;1.13;;;;;;;12.38;86.65;98724.28;4994895;28;20045;-77
2021/10/21 01:59:23;;;;;;;9.27;1.40;;;;;;;12.43;86.07;98724.41;4975908;28;20042;-80
2021/10/21 02:01:49;;;;;;;4.00;1.30;;;;;;;12.39;85.67;98720.66;4991136;28;20041;-75
2021/10/21 02:04:14;;;;;;;8.35;1.27;;;;;;;12.32;85.11;98723.38;4975944;28;20036;-77
2021/10/21 02:06:40;;;;;;;6.80;1.23;;;;;;;12.34;84.67;98721.34;4974796;28;20034;-79
2021/10/21 02:09:06;;;;;;;3.72;1.00;;;;;;;12.27;84.41;98711.00;4974583;28;20057;-78
2021/10/21 02:11:31;;;;;;;7.75;1.10;;;;;;;12.18;82.75;98712.31;4988163;28;20057;-76
2021/10/21 02:13:57;;;;;;;5.25;0.98;;;;;;;12.13;80.27;98701.78;4990834;28;20049;-77
2021/10/21 02:16:23;;;;;;;4.07;0.80;;;;;;;12.13;79.27;98703.56;4981547;28;20030;-75
2021/10/21 02:18:48;;;;;;;4.45;0.88;;;;;;;12.07;77.33;98693.06;4989334;28;21720;-77
2021/10/21 02:21:14;;;;;;;6.90;0.82;;;;;;;12.03;77.49;98686.69;4988382;28;20038;-77
2021/10/21 02:23:39;;;;;;;6.43;1.00;;;;;;;12.05;76.93;98683.88;4974769;28;20041;-77
2021/10/21 02:26:05;;;;;;;7.78;0.70;;;;;;;12.04;75.25;98685.69;4990640;28;20046;-76
2021/10/21 02:28:30;;;;;;;6.30;0.80;;;;;;;11.99;76.59;98669.16;4991329;28;20439;-74
2021/10/21 02:30:55;;;;;;;8.93;0.82;;;;;;;11.96;75.02;98682.56;4973427;28;20210;-77
2021/10/21 02:33:21;;;;;;;3.45;0.50;;;;;;;11.96;75.60;98698.97;4973499;28;20030;-76
2021/10/21 02:35:46;;;;;;;9.32;1.20;;;;;;;11.99;75.13;98679.56;4975989;28;20038;-77
2021/10/21 02:38:13;;;;;;;9.45;0.80;;;;;;;11.91;75.67;98691.03;4973560;28;20112;-76
2021/10/21 02:40:39;;;;;;;9.15;1.08;;;;;;;12.05;75.11;98686.47;4990508;28;20030;-77
2021/10/21 02:43:05;;;;;;;7.35;0.63;;;;;;;11.94;75.03;98671.59;4972285;28;20038;-76
2021/10/21 02:45:30;;;;;;;4.20;0.73;;;;;;;12.06;74.21;98656.91;4974395;28;20068;-78
2021/10/21 02:47:56;;;;;;;8.57;2.10;;;;;;;12.04;75.28;98690.88;4991671;28;20474;-76
2021/10/21 02:50:23;;;;;;;5.78;1.50;;;;;;;12.04;74.67;98677.91;4989376;28;20026;-77
2021/10/21 02:52:49;;;;;;;7.30;0.85;;;;;;;12.11;74.71;98671.81;4973657;28;20462;-76
2021/10/21 02:55:14;;;;;;;8.85;1.00;;;;;;;12.15;75.09;98658.19;4972284;28;20227;-77
2021/10/21 02:57:41;;;;;;;8.30;1.13;;;;;;;12.15;75.09;98673.78;4974551;28;20039;-75
2021/10/21 03:00:08;;;;;;;5.93;0.60;;;;;;;12.16;74.67;98659.78;4994435;28;20550;-76
2021/10/21 03:02:33;;;;;;;7.13;0.85;;;;;;;12.06;76.09;98672.50;4973427;28;20365;-75
2021/10/21 03:04:59;;;;;;;4.68;0.80;;;;;;;12.17;76.27;98666.56;4991084;28;20304;-77
2021/10/21 03:07:24;;;;;;;11.02;1.58;;;;;;;12.07;76.97;98669.69;4991078;28;20479;-76
2021/10/21 03:09:50;;;;;;;9.10;1.05;;;;;;;12.04;77.32;98672.69;4957787;28;20042;-75
2021/10/21 03:12:15;;;;;;;8.48;0.95;;;;;;;12.01;77.64;98672.34;4991160;28;20061;-76
2021/10/21 03:14:41;;;;;;;6.38;0.90;;;;;;;11.99;77.67;98653.59;4973745;28;20030;-76
2021/10/21 03:17:07;;;;;;;8.80;1.52;;;;;;;12.05;77.27;98647.50;4991317;28;20497;-78
2021/10/21 03:19:33;;;;;;;8.10;0.70;;;;;;;12.01;77.56;98649.75;4970912;28;20034;-78
2021/10/21 03:21:59;;;;;;;10.63;1.10;;;;;;;11.92;77.18;98635.47;4989079;28;20030;-78
2021/10/21 03:24:25;;;;;;;4.10;0.70;;;;;;;11.90;76.67;98652.28;4956402;28;20405;-78
2021/10/21 03:26:51;;;;;;;8.27;0.88;;;;;;;11.97;76.04;98638.22;4990721;28;20113;-75
2021/10/21 03:29:16;;;;;;;4.65;0.80;;;;;;;11.94;76.27;98622.25;4987047;28;20401;-77
2021/10/21 03:31:42;;;;;;;13.30;1.23;;;;;;;12.09;75.30;98633.06;4972968;28;20038;-76
2021/10/21 03:34:07;;;;;;;6.38;1.13;;;;;;;12.04;74.80;98632.94;4975926;28;20025;-75
2021/10/21 03:36:33;;;;;;;8.02;0.98;;;;;;;11.99;74.89;98638.00;4989036;28;20127;-75
2021/10/21 03:38:58;;;;;;;10.20;1.13;;;;;;;12.04;74.69;98607.75;4971491;28;20026;-76
2021/10/21 03:41:24;;;;;;;11.85;0.80;;;;;;;12.08;73.76;98631.50;4969733;28;20312;-77
2021/10/21 03:43:49;;;;;;;10.25;0.95;;;;;;;12.07;74.75;98619.50;4972696;28;20513;-77
2021/10/21 03:46:15;;;;;;;5.80;0.75;;;;;;;12.07;74.12;98614.31;4973111;28;20252;-75
2021/10/21 03:48:40;;;;;;;3.83;0.77;;;;;;;12.18;72.90;98615.38;4991153;28;20398;-77
2021/10/21 03:51:06;;;;;;;10.05;1.10;;;;;;;12.13;72.70;98591.88;4971357;28;20038;-77
2021/10/21 03:53:31;;;;;;;6.68;1.23;;;;;;;12.13;73.44;98607.44;4972257;28;20031;-75
2021/10/21 03:55:57;;;;;;;9.70;0.95;;;;;;;12.16;73.51;98607.81;4977800;28;20041;-75
2021/10/21 03:58:22;;;;;;;8.80;1.02;;;;;;;12.15;73.29;98602.81;4971825;28;20490;-76
2021/10/21 04:00:47;;;;;;;9.18;1.15;;;;;;;12.18;72.92;98605.78;4965915;28;20041;-75
2021/10/21 04:03:13;;;;;;;5.70;0.82;;;;;;;12.13;72.98;98602.25;5003473;28;20029;-78
2021/10/21 04:05:38;;;;;;;5.55;0.60;;;;;;;12.24;72.54;98614.50;4971967;28;20112;-76
2021/10/21 04:08:05;;;;;;;9.55;0.90;;;;;;;12.27;72.69;98599.28;4976522;28;20056;-75
2021/10/21 04:10:30;;;;;;;5.10;1.52;;;;;;;12.21;73.13;98596.78;4972606;28;20038;-76
2021/10/21 04:12:56;;;;;;;6.55;1.45;;;;;;;12.15;72.82;98608.03;4975481;28;20038;-75
2021/10/21 04:15:25;;;;;;;7.30;1.10;;;;;;;12.14;73.71;98611.66;5007217;28;20056;-76
2021/10/21 04:17:52;;;;;;;10.48;0.98;;;;;;;12.17;73.33;98590.44;4972209;28;20050;-75
2021/10/21 04:20:18;;;;;;;4.07;1.45;;;;;;;12.13;74.22;98591.88;4971595;28;20501;-75
2021/10/21 04:22:43;;;;;;;12.90;0.80;;;;;;;12.11;73.89;98607.69;5003617;28;20026;-75
2021/10/21 04:25:09;;;;;;;4.97;0.80;;;;;;;12.11;74.32;98597.31;4987362;28;20121;-76
2021/10/21 04:27:34;;;;;;;3.90;0.65;;;;;;;12.15;73.71;98590.66;4986983;28;20094;-75
2021/10/21 04:30:00;;;;;;;3.00;0.60;;;;;;;12.12;74.88;98598.88;4973246;28;20023;-75
2021/10/21 04:32:25;;;;;;;5.63;0.95;;;;;;;12.15;74.46;98602.81;4987987;28;20027;-78
2021/10/21 04:34:51;;;;;;;3.88;1.33;;;;;;;12.14;74.82;98590.88;4971811;28;20026;-76
2021/10/21 04:37:16;;;;;;;6.88;0.60;;;;;;;12.08;75.52;98588.13;4976488;28;20026;-75
2021/10/21 04:39:41;;;;;;;2.85;0.30;;;;;;;11.99;75.96;98620.59;4975885;28;20514;-76
2021/10/21 04:42:07;;;;;;;5.88;0.70;;;;;;;11.92;76.74;98604.31;4970011;28;20046;-77
2021/10/21 04:44:32;;;;;;;3.75;0.40;;;;;;;11.92;76.99;98606.09;4988825;28;20586;-78
2021/10/21 04:46:58;;;;;;;2.67;0.38;;;;;;;11.86;77.76;98623.31;4976870;28;20021;-76
2021/10/21 04:49:24;;;;;;;8.40;0.70;;;;;;;11.74;78.45;98618.06;4971034;28;20038;-76
2021/10/21 04:51:49;;;;;;;5.05;0.68;;;;;;;11.69;78.43;98626.47;4970779;28;20053;-76
2021/10/21 04:54:15;;;;;;;1.75;0.30;;;;;;;11.64;79.54;98612.56;4988225;28;20040;-76
2021/10/21 04:56:41;;;;;;;9.23;0.50;;;;;;;11.63;79.67;98621.38;4967605;28;20494;-77
2021/10/21 04:59:06;;;;;;;2.13;0.30;;;;;;;11.58;80.01;98634.19;4970405;28;20046;-75
2021/10/21 05:01:32;;;;;;;6.72;0.60;;;;;;;11.57;80.03;98627.44;4988117;28;20034;-74
2021/10/21 05:03:57;;;;;;;5.10;0.30;;;;;;;11.48;80.69;98613.94;4987018;28;20073;-77
2021/10/21 05:06:23;;;;;;;3.95;0.30;;;;;;;11.45;81.87;98607.38;4990158;28;20077;-77
2021/10/21 05:08:48;;;;;;;3.70;0.98;;;;;;;11.39;82.82;98626.38;4987550;28;20030;-76
2021/10/21 05:11:14;;;;;;;1.27;0.50;;;;;;;11.34;83.60;98604.69;4973009;28;20467;-76
2021/10/21 05:13:39;;;;;;;1.83;0.25;;;;;;;11.32;83.88;98627.44;4988896;28;20046;-75
2021/10/21 05:16:04;;;;;;;2.08;0.30;;;;;;;11.21;84.33;98621.19;4972783;28;20038;-77
2021/10/21 05:18:30;;;;;;;2.83;0.38;;;;;;;11.21;84.11;98605.63;4974759;28;20038;-74
2021/10/21 05:20:55;;;;;;;4.03;0.43;;;;;;;11.19;85.28;98605.81;4970975;28;20387;-76
2021/10/21 05:23:21;;;;;;;1.00;0.38;;;;;;;11.15;84.97;98604.66;4987709;28;20033;-77
2021/10/21 05:25:46;;;;;;;6.00;0.30;;;;;;;11.09;85.16;98597.72;4971528;28;20077;-76
2021/10/21 05:28:13;;;;;;;1.17;0.30;;;;;;;11.00;85.15;98609.34;4996714;28;20410;-77
2021/10/21 05:30:39;;;;;;;1.50;0.30;;;;;;;11.05;84.82;98586.97;4971851;28;20046;-76
2021/10/21 05:33:04;;;;;;;3.80;0.32;;;;;;;11.07;84.60;98615.28;4970962;28;20026;-76
2021/10/21 05:35:30;;;;;;;2.35;0.52;;;;;;;11.04;83.51;98607.94;4973270;28;20101;-77
2021/10/21 05:37:56;;;;;;;1.95;0.32;;;;;;;10.98;85.75;98608.78;4991549;28;20027;-77
2021/10/21 05:40:21;;;;;;;1.08;0.40;;;;;;;10.88;86.56;98604.06;4953531;28;20034;-75
2021/10/21 05:42:47;;;;;;;2.60;0.35;;;;;;;10.70;87.78;98631.53;4983108;28;20023;-76
2021/10/21 05:45:14;;;;;;;5.43;0.60;;;;;;;10.60;88.02;98662.25;4978752;28;20034;-75
2021/10/21 05:47:41;;;;;;;2.05;0.40;;;;;;;10.51;88.27;98648.00;4973789;28;20548;-76
2021/10/21 05:50:08;;;;;;;2.10;0.35;;;;;;;10.40;88.15;98654.59;4970191;28;20378;-78
2021/10/21 05:52:34;;;;;;;4.03;0.55;;;;;;;10.46;88.16;98694.44;4953462;28;20033;-75
2021/10/21 05:55:01;;;;;;;1.88;0.60;;;;;;;10.42;87.68;98694.06;4969553;28;20030;-80
2021/10/21 05:57:26;;;;;;;9.68;0.73;;;;;;;10.40;87.58;98716.78;5003093;28;20364;-75
2021/10/21 05:59:52;;;;;;;7.80;0.82;;;;;;;10.39;87.66;98725.53;4989567;28;20049;-76
2021/10/21 06:02:17;;;;;;;18.67;2.15;;;;;;;10.27;88.36;98740.13;4970458;28;20042;-75
2021/10/21 06:04:43;;;;;;;2.20;0.75;;;;;;;10.24;89.21;98811.25;4989681;28;20070;-76
2021/10/21 06:07:08;;;;;;;2.13;1.05;;;;;;;10.13;89.66;98832.56;4974819;28;20355;-75
2021/10/21 06:09:34;;;;;;;5.80;1.13;;;;;;;10.04;90.17;98842.34;4986873;28;20042;-76
2021/10/21 06:11:59;;;;;;;7.22;0.90;;;;;;;10.01;90.63;98875.63;4991234;28;20477;-77
2021/10/21 06:14:26;;;;;;;7.95;0.60;;;;;;;9.97;90.86;98918.44;4989065;28;20096;-76
2021/10/21 06:16:52;;;;;;;6.90;0.60;;;;;;;9.87;90.15;98921.38;4973773;28;20694;-78
2021/10/21 06:19:17;;;;;;;6.50;0.45;;;;;;;9.77;90.87;98981.31;4957974;28;20034;-79
2021/10/21 06:21:47;;;;;;;8.20;2.20;;;;;;;9.69;90.74;98987.47;4973650;28;20030;-75
2021/10/21 06:24:15;;;;;;;4.45;0.50;;;;;;;9.68;90.85;99031.63;4990595;28;20089;-76
2021/10/21 06:26:41;;;;;;;5.68;0.70;;;;;;;9.71;91.46;99075.25;4992160;28;20463;-77
2021/10/21 06:29:07;;;;;;;9.00;0.88;;;;;;;9.62;91.29;99108.25;4990227;28;20085;-80
2021/10/21 06:31:32;;;;;;;5.82;0.60;;;;;;;9.58;91.58;99096.69;4973648;28;20038;-77
2021/10/21 06:33:58;;;;;;;5.60;0.70;;;;;;;9.58;91.35;99152.84;4993094;28;20085;-77
2021/10/21 06:36:25;;;;;;;4.15;0.63;;;;;;;9.49;92.12;99194.38;4991885;28;20061;-79
2021/10/21 06:38:51;;;;;;;9.45;1.35;;;;;;;9.52;92.56;99227.63;5008835;28;20466;-75
2021/10/21 06:41:16;;;;;;;4.65;1.05;;;;;;;9.47;92.05;99235.16;4990267;28;20026;-77
2021/10/21 06:43:42;;;;;;;11.50;1.05;;;;;;;9.51;91.87;99276.97;4990303;28;20026;-76
2021/10/21 06:46:08;;;;;;;13.77;2.58;;;;;;;9.47;92.42;99302.41;4975407;28;20019;-78
2021/10/21 06:48:33;;;;;;;11.82;1.70;;;;;;;9.54;91.97;99351.66;4989331;28;20037;-81
2021/10/21 06:50:59;;;;;;;9.60;1.13;;;;;;;9.50;92.34;99366.75;4988909;28;20092;-79
2021/10/21 06:53:24;;;;;;;11.32;1.45;;;;;;;9.50;92.65;99369.34;4973729;28;20062;-77
2021/10/21 06:55:50;;;;;;;8.38;1.13;;;;;;;9.47;92.46;99405.91;4974004;28;20038;-78
2021/10/21 06:58:15;;;;;;;9.40;2.13;;;;;;;9.40;91.85;99405.06;4989916;28;20031;-78
2021/10/21 07:00:42;;;;;;;7.25;1.40;;;;;;;9.31;91.14;99432.03;4974462;28;20036;-78
2021/10/21 07:03:09;;;;;;;9.63;1.48;;;;;;;9.37;91.89;99451.19;4972807;28;20038;-77
2021/10/21 07:05:44;;;;;;;10.50;1.73;;;;;;;9.28;91.62;99461.63;4989287;28;20026;-77
2021/10/21 07:08:11;;;;;;;13.27;1.50;;;;;;;9.33;91.65;99480.00;4989090;28;20022;-77
2021/10/21 07:10:37;;;;;;;14.52;1.80;;;;;;;9.35;90.88;99495.34;4975517;28;20092;-78
2021/10/21 07:13:04;;;;;;;10.05;1.38;;;;;;;9.33;90.79;99511.03;4991516;28;20483;-79
2021/10/21 07:15:34;;;;;;;8.80;1.48;;;;;;;9.45;90.60;99518.34;4962229;28;20034;-76
2021/10/21 07:18:00;;;;;;;11.85;1.38;;;;;;;9.47;90.32;99531.91;4975680;28;20037;-75
2021/10/21 07:20:27;;;;;;;10.50;1.58;;;;;;;9.36;89.65;99546.09;5003279;28;20042;-79
2021/10/21 07:22:52;;;;;;;12.50;2.05;;;;;;;9.29;89.33;99571.09;4972788;28;20117;-76
2021/10/21 07:25:18;;;;;;;10.88;1.35;;;;;;;9.30;88.60;99585.63;4989404;28;20138;-79
2021/10/21 07:27:44;;;;;;;8.23;1.05;;;;;;;9.33;87.59;99599.00;4976683;28;20022;-75
2021/10/21 07:30:10;;;;;;;8.15;1.20;;;;;;;9.33;85.94;99626.66;4989480;28;20068;-76
2021/10/21 07:32:37;;;;;;;7.88;1.50;;;;;;;9.27;85.16;99635.94;4988539;28;20022;-78
2021/10/21 07:35:03;;;;;;;12.88;1.10;;;;;;;9.26;85.47;99657.59;5004811;28;20042;-75
2021/10/21 07:37:28;;;;;;;6.30;1.70;;;;;;;9.31;85.37;99663.06;4974642;28;20065;-75
2021/10/21 07:39:54;;;;;;;7.78;1.17;;;;;;;9.22;85.70;99677.03;4976822;28;20030;-76
2021/10/21 07:42:20;;;;;;;10.23;1.10;;;;;;;9.20;86.00;99694.50;4973975;28;20598;-78
2021/10/21 07:44:47;;;;;;;6.63;1.85;;;;;;;9.26;86.36;99709.31;4974903;28;20033;-76
2021/10/21 07:47:13;;;;;;;8.13;1.25;;;;;;;9.22;86.03;99727.97;4989700;28;20034;-77
2021/10/21 07:49:39;;;;;;;10.70;2.17;;;;;;;9.27;86.87;99742.00;4953386;28;20031;-80
2021/10/21 07:52:04;;;;;;;7.63;1.42;;;;;;;9.22;87.63;99740.91;5003981;28;20113;-80
2021/10/21 07:54:31;;;;;;;14.98;1.33;;;;;;;9.35;87.67;99757.44;4972335;28;20474;-79
2021/10/21 07:57:01;;;;;;;13.60;1.67;;;;;;;9.21;88.06;99765.13;4989955;28;20093;-76
2021/10/21 07:59:28;;;;;;;9.60;1.30;;;;;;;9.28;87.56;99777.22;4955168;28;20509;-78
2021/10/21 08:01:58;;;;;;;11.25;1.60;;;;;;;9.34;87.72;99780.88;4975500;28;20109;-76
2021/10/21 08:04:25;;;;;;;11.48;2.00;;;;;;;9.44;87.37;99786.66;4987467;28;20550;-76
2021/10/21 08:06:50;;;;;;;18.17;2.03;;;;;;;9.50;86.85;99806.66;4987536;28;20042;-78
2021/10/21 08:09:19;;;;;;;12.32;1.80;;;;;;;9.45;87.03;99815.91;4972868;28;20041;-77
2021/10/21 08:11:47;;;;;;;13.18;2.72;;;;;;;9.57;87.05;99827.50;4971779;28;20018;-76
2021/10/21 08:14:13;;;;;;;12.30;2.08;;;;;;;9.65;86.15;99831.81;4989339;28;20034;-78
2021/10/21 08:16:38;;;;;;;21.45;2.63;;;;;;;9.97;84.80;99825.53;4984663;28;20066;-78
2021/10/21 08:19:04;;;;;;;23.83;2.40;;;;;;;10.40;82.72;99843.94;4970234;28;20030;-77
2021/10/21 08:21:32;;;;;;;14.82;1.90;;;;;;;10.77;81.23;99857.00;4971492;28;20438;-76
2021/10/21 08:24:01;;;;;;;12.35;2.22;;;;;;;10.93;80.79;99861.19;4972633;28;20193;-77
2021/10/21 08:26:28;;;;;;;12.27;2.00;;;;;;;11.20;79.37;99859.72;4988535;28;20069;-76
2021/10/21 08:28:53;;;;;;;11.85;2.47;;;;;;;11.68;77.65;99865.19;4971622;28;20519;-77
2021/10/21 08:31:19;;;;;;;7.60;1.45;;;;;;;11.98;75.95;99868.50;4971495;28;20042;-80
2021/10/21 08:33:46;;;;;;;15.48;3.47;;;;;;;12.09;74.61;99877.56;4987800;28;20104;-78
2021/10/21 08:36:14;;;;;;;15.00;1.80;;;;;;;12.44;74.11;99883.59;4974191;28;20062;-77
2021/10/21 08:38:41;;;;;;;13.68;2.15;;;;;;;12.48;73.60;99891.84;4983063;28;20061;-79
2021/10/21 08:41:08;;;;;;;8.68;1.70;;;;;;;12.04;74.85;99890.31;4991846;28;20029;-80
2021/10/21 08:43:34;;;;;;;20.65;2.38;;;;;;;12.07;75.68;99901.16;5011763;28;20471;-77
2021/10/21 08:46:00;;;;;;;10.73;2.15;;;;;;;11.93;75.55;99896.81;4982384;28;20064;-75
2021/10/21 08:48:28;;;;;;;25.08;2.90;;;;;;;11.49;77.10;99908.16;4995310;28;20602;-78
2021/10/21 08:50:57;;;;;;;11.82;2.17;;;;;;;11.26;78.00;99916.06;4980987;28;20411;-74
2021/10/21 08:53:22;;;;;;;15.00;2.60;;;;;;;10.89;80.36;99933.38;4999224;28;20065;-77
2021/10/21 08:55:52;;;;;;;21.13;2.28;;;;;;;10.73;80.87;99941.31;4993017;28;20062;-77
2021/10/21 08:58:17;;;;;;;12.13;1.85;;;;;;;10.55;82.59;99947.66;4968295;28;20475;-79
2021/10/21 09:00:43;;;;;;;13.35;2.28;;;;;;;10.55;83.84;99949.41;4990168;28;20030;-78
2021/10/21 09:03:17;;;;;;;13.88;2.25;;;;;;;10.46;83.43;99946.09;4974839;28;20429;-79
2021/10/21 09:05:54;;;;;;;14.52;2.40;;;;;;;10.43;84.02;99949.03;4972048;28;20045;-77
2021/10/21 09:08:20;;;;;;;18.60;4.40;;;;;;;10.31;82.89;99953.84;4976003;28;20037;-78
2021/10/21 09:10:53;;;;;;;17.25;2.63;;;;;;;10.38;83.46;99961.72;4971178;28;20045;-80
2021/10/21 09:13:22;;;;;;;13.52;3.63;;;;;;;10.33;82.81;99967.44;4976245;28;20240;-78
2021/10/21 09:15:55;;;;;;;11.10;2.72;;;;;;;10.35;81.64;99967.25;5006733;28;20180;-79
2021/10/21 09:18:22;;;;;;;10.98;2.38;;;;;;;10.41;80.58;99972.53;4971071;28;20034;-77
2021/10/21 09:20:48;;;;;;;9.32;2.22;;;;;;;10.52;79.49;99985.06;4988436;28;20034;-74
2021/10/21 09:23:17;;;;;;;15.80;2.50;;;;;;;10.58;78.90;99988.75;4971329;28;20553;-76
2021/10/21 09:25:46;;;;;;;12.40;2.10;;;;;;;10.54;79.46;99992.69;4987651;28;20077;-77
2021/10/21 09:28:17;;;;;;;13.43;2.40;;;;;;;10.52;78.43;100005.03;4987410;28;20034;-76
2021/10/21 09:30:56;;;;;;;13.32;1.98;;;;;;;10.63;78.59;100003.81;4988995;28;20034;-78
2021/10/21 09:33:25;;;;;;;10.20;1.83;;;;;;;11.00;77.57;100005.56;5007141;28;20124;-76
2021/10/21 09:36:00;;;;;;;11.00;2.53;;;;;;;11.00;76.18;100015.09;4973810;28;20046;-76
2021/10/21 09:38:28;;;;;;;10.45;3.03;;;;;;;10.95;74.96;100033.81;4987777;28;20034;-75
2021/10/21 09:40:56;;;;;;;14.15;1.55;;;;;;;11.10;75.60;100024.25;4981024;28;20399;-77
2021/10/21 09:43:32;;;;;;;14.82;1.60;;;;;;;11.03;73.98;100033.72;5006731;28;20034;-76
2021/10/21 09:45:58;;;;;;;7.43;1.38;;;;;;;11.13;74.45;100033.47;5006704;28;20082;-75
2021/10/21 09:48:25;;;;;;;7.35;1.50;;;;;;;11.10;75.47;100045.00;4982245;28;20030;-77
2021/10/21 09:50:51;;;;;;;7.50;1.50;;;;;;;11.04;75.28;100056.09;4979554;28;20149;-77
2021/10/21 09:53:21;;;;;;;8.80;1.10;;;;;;;11.12;75.71;100052.63;4998460;28;20053;-77
2021/10/21 09:55:50;;;;;;;6.22;1.42;;;;;;;11.10;74.32;100057.19;5013999;28;20415;-76
2021/10/21 09:58:25;;;;;;;8.50;1.55;;;;;;;11.18;74.65;100056.28;4985260;28;20220;-75
2021/10/21 10:00:51;;;;;;;9.93;1.10;;;;;;;11.19;73.58;100061.31;4997881;28;20062;-76
2021/10/21 10:03:18;;;;;;;6.18;1.10;;;;;;;11.25;72.33;100070.19;4995074;28;20032;-76
2021/10/21 10:05:52;;;;;;;7.22;0.93;;;;;;;11.14;72.29;100063.63;4996166;28;20030;-76
2021/10/21 10:08:19;;;;;;;10.85;1.55;;;;;;;11.15;71.46;100057.47;4982329;28;20037;-76
2021/10/21 10:10:48;;;;;;;8.60;1.77;;;;;;;11.17;69.97;100060.69;4991202;28;20782;-77
2021/10/21 10:13:16;;;;;;;7.22;1.02;;;;;;;11.19;69.74;100063.09;4973032;28;20031;-77
2021/10/21 10:15:44;;;;;;;9.13;1.38;;;;;;;11.18;69.90;100054.50;4980564;28;20120;-76
2021/10/21 10:18:15;;;;;;;6.40;2.05;;;;;;;11.23;70.26;100075.53;4994871;28;20522;-76
2021/10/21 10:20:43;;;;;;;9.38;1.15;;;;;;;11.22;70.16;100067.94;5007756;28;20096;-76
2021/10/21 10:23:12;;;;;;;6.82;0.95;;;;;;;11.33;70.92;100066.69;4970459;28;20061;-76
2021/10/21 10:25:48;;;;;;;12.57;1.63;;;;;;;11.32;74.00;100072.84;5006107;28;20034;-79
2021/10/21 10:28:16;;;;;;;6.35;1.10;;;;;;;11.33;74.61;100090.84;4979358;28;20034;-76
2021/10/21 10:30:53;;;;;;;10.75;1.23;;;;;;;11.27;75.28;100092.38;4995480;28;20038;-76
2021/10/21 10:33:31;;;;;;;8.57;1.60;;;;;;;11.23;74.72;100085.91;4999500;28;20125;-74
2021/10/21 10:36:30;;;;;;;8.10;1.80;;;;;;;11.22;76.12;100093.88;5011306;28;20034;-76
2021/10/21 10:38:58;;;;;;;8.90;1.65;;;;;;;11.32;74.42;100107.41;4997714;28;20100;-77
2021/10/21 10:41:59;;;;;;;7.55;1.40;;;;;;;11.39;74.15;100103.09;4982158;28;20535;-76
2021/10/21 10:44:36;;;;;;;9.57;1.10;;;;;;;11.47;75.35;100110.00;4904631;29;20028;-75
2021/10/21 10:47:06;;;;;;;8.77;1.92;;;;;;;11.53;75.39;100126.66;4978884;28;20046;-77
2021/10/21 10:49:38;;;;;;;10.63;1.73;;;;;;;11.53;73.83;100117.09;4977085;28;20038;-76
2021/10/21 10:52:06;;;;;;;11.25;2.35;;;;;;;11.58;74.78;100126.94;4993575;28;20073;-77
2021/10/21 10:54:47;;;;;;;10.93;2.78;;;;;;;11.58;75.37;100122.53;4998474;28;20390;-77
2021/10/21 10:57:13;;;;;;;12.02;2.97;;;;;;;11.65;74.40;100130.44;4986371;28;20044;-77
2021/10/21 10:59:41;;;;;;;7.53;2.30;;;;;;;11.58;74.70;100135.53;4986750;28;20466;-75
2021/10/21 11:02:22;;;;;;;12.60;1.95;;;;;;;11.63;74.07;100133.19;4994795;28;20072;-77
2021/10/21 11:04:51;;;;;;;13.35;2.50;;;;;;;11.69;74.47;100131.69;5000244;28;20049;-75
2021/10/21 11:07:16;;;;;;;7.65;1.90;;;;;;;11.83;75.30;100137.88;4980224;28;20030;-75
2021/10/21 11:09:44;;;;;;;18.50;5.78;;;;;;;11.90;74.95;100140.56;4995074;28;20033;-76
2021/10/21 11:12:12;;;;;;;7.93;1.77;;;;;;;11.81;74.64;100151.03;4985839;28;20120;-76
2021/10/21 11:14:44;;;;;;;15.73;2.47;;;;;;;11.90;75.90;100153.56;4991850;28;20014;-76
2021/10/21 11:17:14;;;;;;;8.73;1.40;;;;;;;11.76;75.13;100153.34;4979959;28;20065;-76
2021/10/21 11:19:42;;;;;;;11.80;1.42;;;;;;;11.78;75.89;100153.97;4980453;28;20484;-77
2021/10/21 11:22:31;;;;;;;7.88;1.20;;;;;;;11.73;74.25;100153.72;4998407;28;20522;-75
2021/10/21 11:24:59;;;;;;;12.07;2.05;;;;;;;11.72;75.65;100146.91;4969765;28;20642;-76
2021/10/21 11:27:36;;;;;;;8.98;1.25;;;;;;;11.64;74.22;100154.78;4983214;28;20049;-76
2021/10/21 11:30:07;;;;;;;8.70;1.30;;;;;;;11.85;74.49;100172.28;4976295;28;20038;-78
2021/10/21 11:32:34;;;;;;;4.85;0.85;;;;;;;11.67;73.88;100160.41;4998861;28;20037;-79